Time;durP1;ratioP1;P1;durP2;ratioP2;P2;SDS_P1;SDS_P2;PMS_P1;PMS_P2;Temp;Humidity;BMP_temperature;BMP_pressure;BME280_temperature;BME280_humidity;BME280_pressure;Samples;Min_cycle;Max_cycle;Signal;HPM_P1;HPM_P2
2022/10/11 00:00:15;;;;;;;;;2.33;2.33;;;;;16.93;58.44;101781.03;2116289;27;45759;-63
2022/10/11 00:01:15;;;;;;;;;2.00;1.33;;;;;16.91;58.03;101778.41;2113109;27;46660;-64
2022/10/11 00:02:16;;;;;;;;;3.00;1.67;;;;;16.89;58.35;101773.97;2116934;27;46755;-65
2022/10/11 00:03:16;;;;;;;;;3.33;3.00;;;;;16.87;58.38;101778.50;2115617;27;46334;-64
2022/10/11 00:04:17;;;;;;;;;0.00;0.00;;;;;16.86;58.41;101777.63;2120532;27;46861;-64
2022/10/11 00:05:17;;;;;;;;;2.00;1.00;;;;;16.85;58.00;101783.06;2100723;28;46520;-62
2022/10/11 00:06:17;;;;;;;;;1.00;1.00;;;;;16.85;58.04;101783.94;2098807;28;46566;-64
2022/10/11 00:07:18;;;;;;;;;4.67;2.67;;;;;16.84;58.52;101784.84;2119127;27;46356;-63
2022/10/11 00:08:18;;;;;;;;;3.67;3.00;;;;;16.84;58.09;101790.22;2118558;27;46820;-63
2022/10/11 00:09:19;;;;;;;;;2.67;1.33;;;;;16.83;58.46;101780.41;2118478;27;46891;-64
2022/10/11 00:10:19;;;;;;;;;2.00;1.00;;;;;16.83;58.11;101792.94;2112971;27;45724;-62
2022/10/11 00:11:20;;;;;;;;;2.00;2.00;;;;;16.82;58.16;101788.50;2118189;27;46415;-64
2022/10/11 00:12:20;;;;;;;;;2.00;1.00;;;;;16.80;57.91;101788.56;2116138;27;46505;-65
2022/10/11 00:13:20;;;;;;;;;1.67;1.67;;;;;16.79;57.97;101789.50;2119822;27;46298;-64
2022/10/11 00:14:22;;;;;;;;;2.00;0.00;;;;;16.79;58.05;101780.56;2116464;27;46607;-65
2022/10/11 00:15:23;;;;;;;;;2.00;1.00;;;;;16.77;58.12;101796.72;2117952;27;45683;-63
2022/10/11 00:16:23;;;;;;;;;2.67;2.67;;;;;16.76;57.76;101784.19;2114001;27;46277;-64
2022/10/11 00:17:24;;;;;;;;;1.67;1.67;;;;;16.76;58.15;101789.56;2117212;27;46282;-62
2022/10/11 00:18:24;;;;;;;;;2.00;1.00;;;;;16.75;57.82;101794.03;2115448;27;46539;-63
2022/10/11 00:19:25;;;;;;;;;1.67;1.67;;;;;16.74;58.01;101789.59;2115131;27;46651;-64
2022/10/11 00:20:25;;;;;;;;;1.67;1.67;;;;;16.75;57.90;101790.50;2115585;27;46241;-64
2022/10/11 00:21:26;;;;;;;;;1.00;1.00;;;;;16.74;57.94;101797.66;2115660;27;46573;-64
2022/10/11 00:22:26;;;;;;;;;1.00;1.00;;;;;16.74;57.98;101799.44;2119634;27;46287;-65
2022/10/11 00:23:26;;;;;;;;;1.67;1.67;;;;;16.72;57.92;101791.47;2118607;27;46366;-64
2022/10/11 00:24:27;;;;;;;;;3.00;1.33;;;;;16.71;57.64;101791.50;2119478;27;46642;-63
2022/10/11 00:25:27;;;;;;;;;2.00;2.00;;;;;16.70;57.63;101792.44;2116242;27;46204;-64
2022/10/11 00:26:28;;;;;;;;;1.00;1.00;;;;;16.71;57.76;101795.06;2113646;27;46247;-64
2022/10/11 00:27:28;;;;;;;;;2.00;2.00;;;;;16.70;58.00;101790.63;2121038;27;46458;-62
2022/10/11 00:28:29;;;;;;;;;1.00;1.00;;;;;16.69;57.83;101798.72;2117311;27;46260;-63
2022/10/11 00:29:29;;;;;;;;;2.67;2.00;;;;;16.69;57.74;101796.03;2118348;27;46539;-63
2022/10/11 00:30:29;;;;;;;;;1.33;0.33;;;;;16.66;57.89;101797.00;2116239;27;46524;-63
2022/10/11 00:31:30;;;;;;;;;2.67;1.00;;;;;16.67;57.82;101793.41;2117730;27;46892;-64
2022/10/11 00:32:32;;;;;;;;;0.33;0.00;;;;;16.67;58.15;101795.19;2117248;27;46439;-65
2022/10/11 00:33:33;;;;;;;;;2.75;2.75;;;;;16.66;57.78;101794.31;2115672;27;46490;-66
2022/10/11 00:34:33;;;;;;;;;1.00;0.67;;;;;16.65;57.96;101789.88;2115717;27;46308;-65
2022/10/11 00:35:33;;;;;;;;;1.00;1.00;;;;;16.65;57.59;101792.56;2113419;27;46355;-64
2022/10/11 00:36:33;;;;;;;;;1.33;1.33;;;;;16.64;57.55;101793.47;2116901;27;46676;-62
2022/10/11 00:37:36;;;;;;;;;3.00;3.00;;;;;16.62;57.93;101789.06;2114719;27;46319;-63
2022/10/11 00:38:37;;;;;;;;;1.00;0.00;;;;;16.61;57.46;101795.34;2114475;27;46809;-63
2022/10/11 00:39:37;;;;;;;;;2.67;1.00;;;;;16.58;57.96;101790.97;2120388;27;47434;-63
2022/10/11 00:40:37;;;;;;;;;1.00;1.00;;;;;16.57;57.99;101796.38;2115309;27;45263;-64
2022/10/11 00:41:38;;;;;;;;;1.33;1.00;;;;;16.55;57.95;101795.53;2118840;27;46176;-63
2022/10/11 00:42:39;;;;;;;;;0.67;0.67;;;;;16.53;57.91;101792.91;2119333;27;46164;-62
2022/10/11 00:43:39;;;;;;;;;3.33;2.00;;;;;16.52;57.73;101798.31;2121631;27;46495;-62
2022/10/11 00:44:44;;;;;;;;;2.67;2.00;;;;;16.51;57.91;101801.91;2118020;27;45872;-64
2022/10/11 00:45:57;;;;;;;;;2.25;2.25;;;;;16.48;58.02;101794.84;2117914;27;46543;-63
2022/10/11 00:47:11;;;;;;;;;5.50;2.00;;;;;16.46;57.93;101802.91;2102105;28;46805;-63
2022/10/11 00:48:19;;;;;;;;;1.50;0.75;;;;;16.46;58.16;101802.91;2103900;27;46594;-63
2022/10/11 00:49:43;;;;;;;;;3.25;2.00;;;;;16.45;57.91;101802.97;2118323;27;46493;-61
2022/10/11 00:50:43;;;;;;;;;2.50;2.50;;;;;16.44;57.80;101807.44;2114993;27;46721;-62
2022/10/11 00:51:47;;;;;;;;;2.33;1.33;;;;;16.44;58.12;101803.88;2122737;27;46314;-64
2022/10/11 00:52:58;;;;;;;;;2.00;2.00;;;;;16.43;57.57;101812.84;2117097;27;46590;-62
2022/10/11 00:53:59;;;;;;;;;3.00;0.75;;;;;16.42;57.83;101805.75;2097045;28;46424;-63
2022/10/11 00:55:20;;;;;;;;;2.00;1.75;;;;;16.41;58.07;101812.03;2107083;27;46565;-63
2022/10/11 00:56:32;;;;;;;;;1.00;1.00;;;;;16.42;57.83;101809.31;2121830;27;46650;-63
2022/10/11 00:57:36;;;;;;;;;0.75;0.75;;;;;16.43;57.96;101815.53;2121875;27;46201;-65
2022/10/11 00:58:37;;;;;;;;;2.00;2.00;;;;;16.42;57.91;101814.66;2122622;27;45834;-63
2022/10/11 00:59:49;;;;;;;;;1.00;0.00;;;;;16.43;57.87;101803.00;2114401;27;45948;-62
2022/10/11 01:00:50;;;;;;;;;1.25;0.25;;;;;16.44;57.74;101803.88;2117810;27;47003;-64
2022/10/11 01:01:51;;;;;;;;;3.00;2.00;;;;;16.44;57.94;101801.22;2117343;27;46841;-62
2022/10/11 01:02:51;;;;;;;;;2.67;1.00;;;;;16.45;57.85;101802.97;2119484;27;46419;-62
2022/10/11 01:03:51;;;;;;;;;1.33;0.00;;;;;16.44;57.45;101803.88;2118463;27;46034;-62
2022/10/11 01:04:53;;;;;;;;;0.33;0.33;;;;;16.45;57.52;101808.31;2122510;27;46179;-62
2022/10/11 01:05:53;;;;;;;;;0.75;0.00;;;;;16.44;57.62;101804.78;2116509;27;47015;-62
2022/10/11 01:06:56;;;;;;;;;2.00;2.00;;;;;16.43;57.33;101812.84;2117353;27;46390;-64
2022/10/11 01:07:58;;;;;;;;;3.25;2.00;;;;;16.42;57.44;101813.78;2122413;27;46836;-63
2022/10/11 01:08:59;;;;;;;;;0.25;0.25;;;;;16.42;57.19;101813.78;2119586;27;46478;-62
2022/10/11 01:09:59;;;;;;;;;0.67;0.67;;;;;16.41;57.57;101817.38;2122314;27;45903;-63
2022/10/11 01:11:00;;;;;;;;;2.00;2.00;;;;;16.40;57.42;101810.28;2119380;27;45736;-62
2022/10/11 01:12:05;;;;;;;;;1.00;1.00;;;;;16.39;57.19;101811.19;2121249;27;47009;-62
2022/10/11 01:13:30;;;;;;;;;1.00;1.00;;;;;16.37;57.71;101816.56;2121243;27;46636;-63
2022/10/11 01:14:51;;;;;;;;;0.75;0.75;;;;;16.34;57.80;101805.94;2115029;27;46644;-63
2022/10/11 01:16:06;;;;;;;;;2.00;2.00;;;;;16.34;57.16;101811.31;2121829;27;46451;-62
2022/10/11 01:17:07;;;;;;;;;2.25;2.25;;;;;16.34;57.53;101813.09;2116722;27;47171;-63
2022/10/11 01:18:41;;;;;;;;;2.33;1.33;;;;;16.33;57.19;101811.34;2115884;27;45640;-64
2022/10/11 01:20:19;;;;;;;;;1.50;1.50;;;;;16.31;57.50;101816.75;2120281;27;46333;-64
2022/10/11 01:21:22;;;;;;;;;2.75;2.00;;;;;16.30;57.14;101819.47;2122161;27;46768;-63
2022/10/11 01:22:31;;;;;;;;;0.50;0.25;;;;;16.29;57.67;101807.88;2118132;27;45303;-64
2022/10/11 01:24:04;;;;;;;;;3.50;2.25;;;;;16.28;57.64;101803.44;2118227;27;46785;-63
2022/10/11 01:25:20;;;;;;;;;0.75;0.75;;;;;16.28;57.61;101808.81;2085162;28;46717;-64
2022/10/11 01:26:44;;;;;;;;;2.00;2.00;;;;;16.26;57.23;101810.66;2080572;28;46700;-66
2022/10/11 01:27:59;;;;;;;;;3.00;2.25;;;;;16.24;57.32;101817.81;2087396;28;46405;-64
2022/10/11 01:29:29;;;;;;;;;1.00;1.00;;;;;16.22;57.40;101811.66;2083876;28;47072;-65
2022/10/11 01:30:35;;;;;;;;;2.50;2.25;;;;;16.19;57.11;101803.69;2085807;28;45327;-63
2022/10/11 01:31:43;;;;;;;;;2.75;2.75;;;;;16.16;57.24;101812.72;2087883;28;45656;-65
2022/10/11 01:33:04;;;;;;;;;4.00;2.00;;;;;16.14;57.40;101801.16;2085909;28;46272;-63
2022/10/11 01:34:20;;;;;;;;;2.75;1.75;;;;;16.14;57.42;101811.00;2074079;28;46962;-64
2022/10/11 01:35:40;;;;;;;;;0.25;0.25;;;;;16.11;57.54;101803.91;2078299;28;46496;-63
2022/10/11 01:36:57;;;;;;;;;3.75;2.00;;;;;16.11;56.95;101809.25;2075220;28;47208;-64
2022/10/11 01:38:12;;;;;;;;;4.75;1.00;;;;;16.09;57.33;101807.53;2079015;28;46983;-64
2022/10/11 01:39:24;;;;;;;;;2.00;1.25;;;;;16.09;57.53;101811.09;2077102;28;45680;-63
2022/10/11 01:40:38;;;;;;;;;1.00;0.75;;;;;16.08;57.29;101809.34;2072265;28;46396;-64
2022/10/11 01:41:43;;;;;;;;;3.00;0.75;;;;;16.08;57.40;101820.06;2077793;28;46492;-64
2022/10/11 01:42:45;;;;;;;;;3.00;2.00;;;;;16.07;56.95;101812.06;2073068;28;47188;-64
2022/10/11 01:43:47;;;;;;;;;1.75;1.75;;;;;16.05;57.29;101812.13;2074730;28;46610;-64
2022/10/11 01:44:50;;;;;;;;;2.75;1.75;;;;;16.05;57.42;101813.91;2073794;28;46699;-62
2022/10/11 01:45:52;;;;;;;;;3.75;1.50;;;;;16.03;57.34;101807.72;2078434;28;46361;-65
2022/10/11 01:46:53;;;;;;;;;0.50;0.25;;;;;16.02;57.05;101809.53;2074579;28;46528;-63
2022/10/11 01:48:08;;;;;;;;;2.00;1.00;;;;;16.03;57.14;101807.72;2073974;28;46868;-64
2022/10/11 01:49:09;;;;;;;;;4.00;2.75;;;;;16.01;57.54;101818.47;2067558;28;46530;-63
2022/10/11 01:50:35;;;;;;;;;2.00;2.00;;;;;16.01;57.36;101813.13;2071074;28;46748;-64
2022/10/11 01:51:40;;;;;;;;;2.00;2.00;;;;;16.01;57.44;101812.25;2078364;28;46977;-63
2022/10/11 01:52:43;;;;;;;;;1.75;1.50;;;;;16.00;57.04;101813.13;2074645;28;46818;-63
2022/10/11 01:54:12;;;;;;;;;2.75;2.00;;;;;16.00;56.87;101810.47;2077207;28;45878;-63
2022/10/11 01:55:51;;;;;;;;;2.00;2.00;;;;;15.98;57.38;101812.31;2075689;28;46819;-63
2022/10/11 01:57:16;;;;;;;;;1.75;1.00;;;;;15.96;57.00;101809.69;2076582;28;45331;-62
2022/10/11 01:58:31;;;;;;;;;2.00;2.00;;;;;15.96;57.07;101808.78;2078646;28;46762;-63
2022/10/11 02:00:05;;;;;;;;;3.00;3.00;;;;;15.95;57.09;101809.72;2078849;28;46890;-64
2022/10/11 02:01:34;;;;;;;;;3.25;3.00;;;;;15.93;56.73;101806.22;2075821;28;46367;-63
2022/10/11 02:02:56;;;;;;;;;5.25;4.00;;;;;15.92;57.20;101807.13;2076860;28;46641;-64
2022/10/11 02:03:56;;;;;;;;;5.25;4.00;;;;;15.89;57.13;101803.63;2087275;28;46776;-63
2022/10/11 02:05:08;;;;;;;;;3.00;2.33;;;;;15.87;56.72;101800.06;2086281;28;46902;-63
2022/10/11 02:06:26;;;;;;;;;3.75;3.00;;;;;15.85;57.00;101803.72;2087624;28;46647;-63
2022/10/11 02:07:48;;;;;;;;;2.00;2.00;;;;;15.84;57.10;101805.53;2084341;28;46714;-63
2022/10/11 02:08:59;;;;;;;;;2.00;2.00;;;;;15.83;57.02;101801.09;2083403;28;46648;-62
2022/10/11 02:10:18;;;;;;;;;1.75;1.75;;;;;15.80;56.75;101803.84;2087367;28;46337;-63
2022/10/11 02:11:27;;;;;;;;;2.75;1.25;;;;;15.78;56.95;101811.03;2086763;28;46713;-64
2022/10/11 02:12:35;;;;;;;;;4.25;3.00;;;;;15.77;57.46;101801.25;2093638;28;46824;-63
2022/10/11 02:13:43;;;;;;;;;3.25;2.25;;;;;15.78;57.24;101799.47;2094510;28;46554;-64
2022/10/11 02:14:48;;;;;;;;;2.75;2.75;;;;;15.77;57.17;101797.72;2094175;28;45715;-64
2022/10/11 02:15:51;;;;;;;;;3.00;3.00;;;;;15.78;57.21;101810.16;2087955;28;46148;-64
2022/10/11 02:16:56;;;;;;;;;2.75;2.75;;;;;15.76;57.13;101801.31;2090717;28;46697;-64
2022/10/11 02:18:01;;;;;;;;;2.25;1.75;;;;;15.77;57.30;101808.41;2094708;28;46789;-63
2022/10/11 02:19:05;;;;;;;;;2.50;2.00;;;;;15.76;57.19;101815.56;2092382;28;46363;-63
2022/10/11 02:20:11;;;;;;;;;3.00;3.00;;;;;15.75;56.82;101812.91;2092996;28;46592;-62
2022/10/11 02:21:17;;;;;;;;;5.00;3.50;;;;;15.73;57.26;101810.25;2093819;28;46444;-64
2022/10/11 02:22:23;;;;;;;;;2.00;1.25;;;;;15.73;57.26;101810.25;2094903;28;46943;-63
2022/10/11 02:23:50;;;;;;;;;2.50;2.25;;;;;15.73;56.83;101804.03;2095097;28;46420;-64
2022/10/11 02:24:56;;;;;;;;;1.75;1.00;;;;;15.72;57.02;101805.84;2088850;28;45924;-65
2022/10/11 02:25:57;;;;;;;;;4.75;4.25;;;;;15.71;56.62;101801.41;2093155;28;45112;-64
2022/10/11 02:27:01;;;;;;;;;2.75;1.75;;;;;15.70;57.17;101801.44;2094010;28;46156;-64
2022/10/11 02:28:09;;;;;;;;;2.25;2.25;;;;;15.68;57.05;101804.16;2089617;28;46998;-64
2022/10/11 02:29:13;;;;;;;;;5.50;4.00;;;;;15.67;57.31;101801.53;2093084;28;46802;-65
2022/10/11 02:30:15;;;;;;;;;3.25;1.75;;;;;15.67;56.87;101801.53;2093943;28;46762;-63
2022/10/11 02:31:18;;;;;;;;;2.25;2.25;;;;;15.67;56.77;101802.41;2093651;28;47160;-65
2022/10/11 02:32:20;;;;;;;;;3.75;2.75;;;;;15.66;56.91;101803.34;2091720;28;46775;-64
2022/10/11 02:33:27;;;;;;;;;4.00;3.50;;;;;15.65;56.84;101806.94;2091733;28;46170;-63
2022/10/11 02:34:36;;;;;;;;;3.50;2.50;;;;;15.64;56.72;101798.94;2110802;27;46671;-64
2022/10/11 02:35:43;;;;;;;;;3.00;3.00;;;;;15.64;57.20;101806.97;2115971;27;46372;-62
2022/10/11 02:37:11;;;;;;;;;2.25;2.00;;;;;15.62;56.67;101806.97;2115677;27;46616;-65
2022/10/11 02:38:20;;;;;;;;;2.00;2.00;;;;;15.63;56.73;101807.88;2121317;27;46366;-63
2022/10/11 02:39:30;;;;;;;;;3.50;1.50;;;;;15.63;56.98;101810.56;2120087;27;46618;-63
2022/10/11 02:40:34;;;;;;;;;4.00;3.00;;;;;15.63;56.91;101813.25;2116974;27;46507;-64
2022/10/11 02:41:39;;;;;;;;;2.50;2.50;;;;;15.62;57.21;101808.78;2107010;27;45855;-63
2022/10/11 02:42:57;;;;;;;;;3.00;2.00;;;;;15.61;57.19;101807.91;2106942;27;45991;-65
2022/10/11 02:44:11;;;;;;;;;1.50;1.50;;;;;15.61;56.51;101818.59;2121442;27;46762;-63
2022/10/11 02:45:18;;;;;;;;;2.00;2.00;;;;;15.60;56.63;101806.16;2118355;27;46628;-63
2022/10/11 02:46:19;;;;;;;;;3.00;2.00;;;;;15.60;56.63;101807.03;2119881;27;46879;-64
2022/10/11 02:47:20;;;;;;;;;5.00;3.00;;;;;15.60;56.63;101811.50;2120127;27;47140;-63
2022/10/11 02:48:22;;;;;;;;;6.67;4.00;;;;;15.59;56.64;101815.06;2121045;27;46330;-62
2022/10/11 02:49:23;;;;;;;;;2.25;2.25;;;;;15.58;56.87;101814.19;2120357;27;47028;-64
2022/10/11 02:50:23;;;;;;;;;1.67;1.67;;;;;15.58;57.19;101813.31;2114945;27;46437;-64
2022/10/11 02:51:26;;;;;;;;;2.67;2.67;;;;;15.59;56.94;101817.72;2119711;27;46057;-64
2022/10/11 02:52:26;;;;;;;;;2.25;1.00;;;;;15.58;56.53;101814.19;2102722;28;46677;-63
2022/10/11 02:53:27;;;;;;;;;3.33;2.33;;;;;15.58;56.54;101810.63;2103660;27;47155;-63
2022/10/11 02:54:27;;;;;;;;;2.67;1.67;;;;;15.57;56.73;101807.06;2120503;27;46690;-63
2022/10/11 02:55:28;;;;;;;;;2.00;2.00;;;;;15.58;57.17;101808.81;2117763;27;46700;-64
2022/10/11 02:56:28;;;;;;;;;2.00;0.67;;;;;15.62;56.76;101812.34;2121019;27;46160;-64
2022/10/11 02:57:28;;;;;;;;;1.67;1.67;;;;;15.63;56.64;101807.88;2118646;27;46756;-64
2022/10/11 02:58:29;;;;;;;;;1.67;1.67;;;;;15.63;56.52;101816.78;2117923;27;46476;-64
2022/10/11 02:59:29;;;;;;;;;3.00;2.33;;;;;15.65;56.41;101814.97;2118370;27;46484;-62
2022/10/11 03:00:30;;;;;;;;;2.00;2.00;;;;;15.65;56.86;101814.97;2115129;27;46303;-63
2022/10/11 03:01:30;;;;;;;;;1.25;1.25;;;;;15.66;56.79;101816.72;2117219;27;46277;-63
2022/10/11 03:02:31;;;;;;;;;2.00;1.33;;;;;15.66;56.83;101815.84;2119766;27;45208;-63
2022/10/11 03:03:31;;;;;;;;;1.00;1.00;;;;;15.66;56.24;101819.38;2121734;27;46108;-64
2022/10/11 03:04:31;;;;;;;;;3.00;3.00;;;;;15.68;56.86;101814.00;2120428;27;46737;-65
2022/10/11 03:05:39;;;;;;;;;1.33;1.33;;;;;15.66;56.14;101819.38;2120014;27;46486;-64
2022/10/11 03:06:39;;;;;;;;;3.00;3.00;;;;;15.63;56.80;101816.78;2111026;27;48780;-63
2022/10/11 03:07:39;;;;;;;;;3.67;2.67;;;;;15.63;56.74;101818.59;2110649;27;46861;-65
2022/10/11 03:08:40;;;;;;;;;2.33;0.33;;;;;15.62;56.37;101817.69;2116755;27;46276;-62
2022/10/11 03:09:40;;;;;;;;;2.67;2.67;;;;;15.62;56.71;101822.16;2119681;27;46054;-64
2022/10/11 03:10:41;;;;;;;;;2.67;2.67;;;;;15.61;56.70;101821.28;2117231;27;46493;-63
2022/10/11 03:11:41;;;;;;;;;4.00;2.00;;;;;15.61;56.03;101823.94;2119028;27;46208;-64
2022/10/11 03:12:41;;;;;;;;;1.67;1.67;;;;;15.60;56.44;101816.84;2115416;27;46523;-64
2022/10/11 03:13:42;;;;;;;;;1.33;1.33;;;;;15.59;56.25;101820.41;2118300;27;46640;-63
2022/10/11 03:14:42;;;;;;;;;1.67;0.67;;;;;15.58;56.24;101821.31;2118242;27;46596;-65
2022/10/11 03:15:42;;;;;;;;;5.00;2.33;;;;;15.56;56.57;101815.13;2121439;27;47861;-64
2022/10/11 03:16:42;;;;;;;;;3.33;3.33;;;;;15.54;56.37;101825.88;2116411;27;46602;-64
2022/10/11 03:17:43;;;;;;;;;4.33;3.33;;;;;15.54;56.08;101825.00;2116203;27;45840;-63
2022/10/11 03:18:43;;;;;;;;;2.00;1.67;;;;;15.51;56.61;101819.75;2115527;27;46556;-64
2022/10/11 03:19:43;;;;;;;;;0.67;0.67;;;;;15.51;56.37;101830.44;2121218;27;46743;-62
2022/10/11 03:20:44;;;;;;;;;2.00;2.00;;;;;15.50;56.65;101828.66;2117417;27;46476;-63
2022/10/11 03:21:44;;;;;;;;;5.00;2.00;;;;;15.49;56.34;101821.53;2117033;27;46593;-65
2022/10/11 03:22:44;;;;;;;;;2.00;2.00;;;;;15.49;56.71;101822.44;2118983;27;46112;-63
2022/10/11 03:23:45;;;;;;;;;2.00;2.00;;;;;15.49;56.26;101822.44;2120035;27;46097;-65
2022/10/11 03:24:45;;;;;;;;;3.33;2.00;;;;;15.47;56.52;101821.59;2117725;27;46749;-65
2022/10/11 03:25:45;;;;;;;;;3.00;3.00;;;;;15.47;56.51;101826.06;2117201;27;46448;-63
2022/10/11 03:26:46;;;;;;;;;3.00;3.00;;;;;15.47;56.64;101826.94;2114978;27;46947;-64
2022/10/11 03:27:46;;;;;;;;;3.33;3.33;;;;;15.47;56.51;101826.94;2121180;27;46306;-64
2022/10/11 03:28:46;;;;;;;;;1.00;1.00;;;;;15.48;56.17;101827.81;2119873;27;46489;-63
2022/10/11 03:29:47;;;;;;;;;2.33;1.00;;;;;15.47;56.57;101831.41;2118845;27;46174;-64
2022/10/11 03:30:48;;;;;;;;;4.67;3.33;;;;;15.47;56.43;101829.63;2115915;27;46205;-64
2022/10/11 03:31:49;;;;;;;;;1.75;1.75;;;;;15.47;56.25;101828.72;2121915;27;45239;-62
2022/10/11 03:32:49;;;;;;;;;1.33;1.00;;;;;15.47;56.68;101831.41;2119597;27;46509;-63
2022/10/11 03:33:49;;;;;;;;;2.00;1.00;;;;;15.47;56.68;101836.75;2121437;27;45685;-65
2022/10/11 03:34:49;;;;;;;;;1.67;1.67;;;;;15.44;56.68;101835.03;2119652;27;46674;-65
2022/10/11 03:35:50;;;;;;;;;1.00;1.00;;;;;15.44;56.54;101843.06;2121170;27;47060;-64
2022/10/11 03:36:50;;;;;;;;;2.00;1.00;;;;;15.44;56.35;101839.50;2119441;27;46459;-63
2022/10/11 03:37:51;;;;;;;;;1.00;1.00;;;;;15.43;56.54;101835.09;2120755;27;46659;-63
2022/10/11 03:38:51;;;;;;;;;2.33;1.00;;;;;15.43;56.43;101843.09;2119841;27;45169;-63
2022/10/11 03:39:51;;;;;;;;;3.00;0.67;;;;;15.42;56.28;101844.03;2120405;27;46915;-64
2022/10/11 03:40:52;;;;;;;;;2.00;2.00;;;;;15.43;56.25;101840.44;2118639;27;46830;-63
2022/10/11 03:41:52;;;;;;;;;3.00;3.00;;;;;15.42;56.59;101836.00;2119879;27;46528;-64
2022/10/11 03:42:55;;;;;;;;;2.67;2.00;;;;;15.41;56.46;101836.91;2119418;27;46550;-63
2022/10/11 03:43:55;;;;;;;;;2.00;2.00;;;;;15.41;56.16;101843.16;2111917;27;46718;-63
2022/10/11 03:44:56;;;;;;;;;2.33;0.33;;;;;15.39;56.29;101839.63;2110839;27;46273;-63
2022/10/11 03:45:56;;;;;;;;;3.00;2.00;;;;;15.37;56.08;101846.78;2120591;27;46191;-64
2022/10/11 03:46:56;;;;;;;;;3.00;1.00;;;;;15.35;56.19;101832.59;2118746;27;46252;-64
2022/10/11 03:47:56;;;;;;;;;1.00;1.00;;;;;15.33;56.14;101839.75;2120191;27;45210;-63
2022/10/11 03:48:57;;;;;;;;;1.67;1.67;;;;;15.33;56.52;101842.44;2108998;27;46283;-63
2022/10/11 03:49:57;;;;;;;;;2.00;2.00;;;;;15.33;56.31;101853.13;2110942;27;46291;-63
2022/10/11 03:50:57;;;;;;;;;2.00;2.00;;;;;15.33;56.40;101839.75;2117112;27;46197;-64
2022/10/11 03:51:58;;;;;;;;;1.67;1.67;;;;;15.31;56.71;101839.81;2115893;27;46402;-63
2022/10/11 03:52:58;;;;;;;;;1.33;1.33;;;;;15.34;56.39;101846.00;2119344;27;46364;-63
2022/10/11 03:53:58;;;;;;;;;1.00;1.00;;;;;15.31;56.54;101839.81;2121316;27;46113;-65
2022/10/11 03:54:59;;;;;;;;;1.00;1.00;;;;;15.31;56.82;101839.81;2120052;27;46227;-63
2022/10/11 03:55:59;;;;;;;;;1.00;1.00;;;;;15.31;56.42;101844.28;2121460;27;45951;-65
2022/10/11 03:56:59;;;;;;;;;2.00;2.00;;;;;15.31;56.69;101847.81;2119533;27;46526;-62
2022/10/11 03:58:00;;;;;;;;;2.33;2.33;;;;;15.31;56.85;101844.28;2119973;27;46563;-63
2022/10/11 03:59:01;;;;;;;;;1.67;1.67;;;;;15.30;56.41;101850.53;2116518;27;46684;-64
2022/10/11 04:00:01;;;;;;;;;3.00;3.00;;;;;15.30;56.50;101846.06;2120440;27;47716;-64
2022/10/11 04:01:01;;;;;;;;;0.67;0.67;;;;;15.30;56.62;101847.88;2117273;27;46367;-64
2022/10/11 04:02:03;;;;;;;;;3.00;3.00;;;;;15.30;56.65;101850.53;2118189;27;46308;-65
2022/10/11 04:03:03;;;;;;;;;2.75;2.75;;;;;15.30;56.83;101851.41;2118574;27;46431;-65
2022/10/11 04:04:04;;;;;;;;;4.33;1.67;;;;;15.31;56.40;101850.50;2120448;27;47147;-64
2022/10/11 04:05:06;;;;;;;;;2.00;1.33;;;;;15.31;56.56;101846.94;2118710;27;46623;-66
2022/10/11 04:06:06;;;;;;;;;2.25;2.00;;;;;15.31;56.53;101852.31;2121436;27;46291;-64
2022/10/11 04:07:07;;;;;;;;;1.67;1.67;;;;;15.32;56.07;101849.59;2117995;27;46657;-63
2022/10/11 04:08:07;;;;;;;;;2.00;2.00;;;;;15.33;56.29;101853.13;2115468;27;45405;-63
2022/10/11 04:09:08;;;;;;;;;2.33;2.33;;;;;15.34;56.31;101851.34;2113100;27;46430;-64
2022/10/11 04:10:08;;;;;;;;;1.00;1.00;;;;;15.34;56.50;101846.00;2116311;27;46750;-63
2022/10/11 04:11:09;;;;;;;;;2.33;1.33;;;;;15.32;56.17;101844.22;2118457;27;46502;-63
2022/10/11 04:12:09;;;;;;;;;2.33;1.67;;;;;15.34;56.60;101851.34;2118598;27;46245;-63
2022/10/11 04:13:11;;;;;;;;;2.67;2.67;;;;;15.34;56.05;101848.66;2115198;27;46102;-62
2022/10/11 04:14:11;;;;;;;;;4.00;3.25;;;;;15.33;56.46;101853.13;2116428;27;46622;-64
2022/10/11 04:15:12;;;;;;;;;2.00;2.00;;;;;15.32;56.22;101848.72;2119564;27;46137;-63
2022/10/11 04:16:12;;;;;;;;;2.25;2.25;;;;;15.32;56.46;101854.94;2119349;27;46766;-64
2022/10/11 04:17:12;;;;;;;;;1.67;1.67;;;;;15.31;55.99;101849.63;2119323;27;45513;-63
2022/10/11 04:18:13;;;;;;;;;2.67;1.67;;;;;15.30;56.29;101853.22;2115520;27;46486;-62
2022/10/11 04:19:13;;;;;;;;;2.67;2.67;;;;;15.30;56.01;101850.53;2120910;27;46214;-63
2022/10/11 04:20:13;;;;;;;;;4.67;3.00;;;;;15.29;56.50;101854.13;2120361;27;45565;-63
2022/10/11 04:21:14;;;;;;;;;2.00;2.00;;;;;15.28;55.87;101850.59;2120575;27;46244;-64
2022/10/11 04:22:15;;;;;;;;;4.00;2.67;;;;;15.28;56.04;101858.59;2108032;27;45655;-63
2022/10/11 04:23:15;;;;;;;;;2.75;2.75;;;;;15.27;56.46;101864.88;2112516;27;46387;-62
2022/10/11 04:24:16;;;;;;;;;5.00;3.33;;;;;15.27;56.15;101855.97;2121637;27;46301;-64
2022/10/11 04:25:16;;;;;;;;;3.33;3.33;;;;;15.27;55.90;101862.19;2117126;27;46648;-63
2022/10/11 04:26:16;;;;;;;;;2.33;2.33;;;;;15.26;56.50;101863.13;2117259;27;45894;-64
2022/10/11 04:27:16;;;;;;;;;2.00;0.00;;;;;15.27;55.88;101861.31;2116832;27;46380;-63
2022/10/11 04:28:17;;;;;;;;;1.00;1.00;;;;;15.27;56.31;101858.66;2112901;27;46959;-64
2022/10/11 04:29:17;;;;;;;;;1.67;1.67;;;;;15.26;56.38;101867.59;2113172;27;45873;-65
2022/10/11 04:30:18;;;;;;;;;4.67;2.67;;;;;15.24;55.86;101867.59;2116775;27;46756;-65
2022/10/11 04:31:18;;;;;;;;;2.67;2.33;;;;;15.23;55.95;101863.16;2120879;27;46721;-64
2022/10/11 04:32:19;;;;;;;;;2.00;2.00;;;;;15.22;56.15;101860.53;2120439;27;46379;-63
2022/10/11 04:33:19;;;;;;;;;5.33;4.67;;;;;15.21;55.94;101867.66;2119806;27;46396;-63
2022/10/11 04:34:19;;;;;;;;;2.67;2.67;;;;;15.20;56.32;101871.25;2116962;27;46657;-63
2022/10/11 04:35:20;;;;;;;;;3.00;1.67;;;;;15.20;56.44;101870.38;2116454;27;46617;-64
2022/10/11 04:36:20;;;;;;;;;2.00;2.00;;;;;15.20;56.26;101870.38;2119679;27;46845;-63
2022/10/11 04:37:20;;;;;;;;;2.33;2.33;;;;;15.20;55.91;101865.03;2119672;27;46842;-63
2022/10/11 04:38:22;;;;;;;;;2.67;1.33;;;;;15.20;55.84;101876.59;2115579;27;46482;-62
2022/10/11 04:39:22;;;;;;;;;2.50;2.50;;;;;15.19;56.09;101871.31;2121820;27;46417;-63
2022/10/11 04:40:23;;;;;;;;;2.33;2.33;;;;;15.18;56.17;101874.88;2118430;27;46716;-64
2022/10/11 04:41:23;;;;;;;;;4.33;2.67;;;;;15.16;56.28;101869.56;2119097;27;46222;-63
2022/10/11 04:42:23;;;;;;;;;5.33;3.67;;;;;15.16;56.26;101880.28;2121367;27;46740;-65
2022/10/11 04:43:24;;;;;;;;;1.67;1.67;;;;;15.14;55.88;101874.09;2120732;27;45998;-62
2022/10/11 04:44:24;;;;;;;;;3.00;3.00;;;;;15.13;56.16;101871.44;2109909;27;46619;-62
2022/10/11 04:45:25;;;;;;;;;3.33;3.00;;;;;15.13;56.21;101866.97;2110213;27;46551;-64
2022/10/11 04:46:25;;;;;;;;;3.00;3.00;;;;;15.12;56.07;101872.34;2117791;27;46668;-65
2022/10/11 04:47:26;;;;;;;;;2.33;2.33;;;;;15.12;56.40;101866.97;2121654;27;46578;-63
2022/10/11 04:48:26;;;;;;;;;3.33;3.33;;;;;15.11;55.93;101873.25;2114267;27;45513;-63
2022/10/11 04:49:26;;;;;;;;;2.67;2.67;;;;;15.09;56.03;101862.59;2120436;27;46792;-64
2022/10/11 04:50:27;;;;;;;;;4.00;3.33;;;;;15.09;56.60;101867.06;2115205;27;46454;-63
2022/10/11 04:51:27;;;;;;;;;3.00;3.00;;;;;15.07;56.14;101867.09;2117702;27;46381;-65
2022/10/11 04:52:27;;;;;;;;;3.67;3.00;;;;;15.06;56.12;101865.34;2115780;27;45902;-64
2022/10/11 04:53:28;;;;;;;;;1.00;1.00;;;;;15.04;56.31;101867.19;2122242;27;46982;-63
2022/10/11 04:54:28;;;;;;;;;5.33;3.00;;;;;15.01;55.85;101868.13;2117060;27;45592;-63
2022/10/11 04:55:29;;;;;;;;;3.00;3.00;;;;;15.00;56.20;101862.81;2120693;27;46209;-65
2022/10/11 04:56:29;;;;;;;;;3.33;2.00;;;;;14.97;56.18;101868.22;2118588;27;45885;-63
2022/10/11 04:57:29;;;;;;;;;3.33;3.00;;;;;14.94;56.25;101861.13;2122002;27;46109;-63
2022/10/11 04:58:32;;;;;;;;;2.00;2.00;;;;;14.93;56.21;101862.06;2120593;27;46202;-65